sensor_id;sensor_type;location;lat;lon;timestamp;P1;durP1;ratioP1;P2;durP2;ratioP2
3873;SDS011;1952;50.872;6.692;2022-07-05T00:32:45;6.90;;;5.10;;
3873;SDS011;1952;50.872;6.692;2022-07-05T00:35:14;5.77;;;5.10;;
3873;SDS011;1952;50.872;6.692;2022-07-05T00:37:51;5.77;;;5.27;;
3873;SDS011;1952;50.872;6.692;2022-07-05T00:40:20;5.67;;;5.17;;
3873;SDS011;1952;50.872;6.692;2022-07-05T00:42:54;5.70;;;5.20;;
3873;SDS011;1952;50.872;6.692;2022-07-05T00:45:23;4.70;;;4.40;;
3873;SDS011;1952;50.872;6.692;2022-07-05T00:47:54;5.30;;;4.70;;
3873;SDS011;1952;50.872;6.692;2022-07-05T00:50:26;6.10;;;5.50;;
3873;SDS011;1952;50.872;6.692;2022-07-05T00:52:55;7.67;;;6.53;;
3873;SDS011;1952;50.872;6.692;2022-07-05T00:55:25;7.50;;;5.60;;
3873;SDS011;1952;50.872;6.692;2022-07-05T00:57:57;8.00;;;7.17;;
3873;SDS011;1952;50.872;6.692;2022-07-05T01:00:25;6.30;;;5.30;;
3873;SDS011;1952;50.872;6.692;2022-07-05T01:02:57;7.37;;;6.67;;
3873;SDS011;1952;50.872;6.692;2022-07-05T01:05:25;8.27;;;5.77;;
3873;SDS011;1952;50.872;6.692;2022-07-05T01:07:54;6.43;;;5.13;;
3873;SDS011;1952;50.872;6.692;2022-07-05T01:10:25;7.73;;;6.03;;
3873;SDS011;1952;50.872;6.692;2022-07-05T01:12:59;7.43;;;5.43;;
3873;SDS011;1952;50.872;6.692;2022-07-05T01:15:28;5.77;;;5.27;;
3873;SDS011;1952;50.872;6.692;2022-07-05T01:18:04;8.10;;;6.13;;
3873;SDS011;1952;50.872;6.692;2022-07-05T01:20:38;9.60;;;5.50;;
3873;SDS011;1952;50.872;6.692;2022-07-05T01:23:11;6.17;;;5.57;;
3873;SDS011;1952;50.872;6.692;2022-07-05T01:25:39;7.30;;;6.70;;
3873;SDS011;1952;50.872;6.692;2022-07-05T01:28:08;5.83;;;5.30;;
3873;SDS011;1952;50.872;6.692;2022-07-05T01:30:36;5.73;;;5.23;;
3873;SDS011;1952;50.872;6.692;2022-07-05T01:33:07;7.07;;;6.10;;
3873;SDS011;1952;50.872;6.692;2022-07-05T01:35:36;7.03;;;5.23;;
3873;SDS011;1952;50.872;6.692;2022-07-05T01:38:04;6.20;;;5.70;;
3873;SDS011;1952;50.872;6.692;2022-07-05T01:40:39;5.70;;;5.30;;
3873;SDS011;1952;50.872;6.692;2022-07-05T01:43:07;5.30;;;4.80;;
3873;SDS011;1952;50.872;6.692;2022-07-05T01:45:40;5.50;;;5.00;;
3873;SDS011;1952;50.872;6.692;2022-07-05T01:48:10;5.53;;;5.03;;
3873;SDS011;1952;50.872;6.692;2022-07-05T01:50:41;5.87;;;5.37;;
3873;SDS011;1952;50.872;6.692;2022-07-05T01:53:14;7.53;;;5.60;;
3873;SDS011;1952;50.872;6.692;2022-07-05T01:55:47;7.07;;;6.00;;
3873;SDS011;1952;50.872;6.692;2022-07-05T01:58:15;5.33;;;4.93;;
3873;SDS011;1952;50.872;6.692;2022-07-05T02:00:44;5.13;;;4.77;;
3873;SDS011;1952;50.872;6.692;2022-07-05T02:03:18;5.83;;;5.27;;
3873;SDS011;1952;50.872;6.692;2022-07-05T02:06:06;5.83;;;5.33;;
3873;SDS011;1952;50.872;6.692;2022-07-05T02:08:36;5.80;;;5.40;;
3873;SDS011;1952;50.872;6.692;2022-07-05T02:11:11;6.20;;;4.77;;
3873;SDS011;1952;50.872;6.692;2022-07-05T02:13:38;5.80;;;5.30;;
3873;SDS011;1952;50.872;6.692;2022-07-05T02:16:07;6.80;;;6.10;;
3873;SDS011;1952;50.872;6.692;2022-07-05T02:18:36;5.73;;;5.33;;
3873;SDS011;1952;50.872;6.692;2022-07-05T02:21:04;8.43;;;5.80;;
3873;SDS011;1952;50.872;6.692;2022-07-05T02:23:32;7.10;;;6.40;;
3873;SDS011;1952;50.872;6.692;2022-07-05T02:26:06;6.30;;;5.80;;
3873;SDS011;1952;50.872;6.692;2022-07-05T02:28:40;6.30;;;5.70;;
3873;SDS011;1952;50.872;6.692;2022-07-05T02:31:08;8.07;;;5.80;;
3873;SDS011;1952;50.872;6.692;2022-07-05T02:33:37;6.50;;;5.90;;
3873;SDS011;1952;50.872;6.692;2022-07-05T02:36:06;6.00;;;5.50;;
3873;SDS011;1952;50.872;6.692;2022-07-05T02:38:35;6.20;;;5.60;;
3873;SDS011;1952;50.872;6.692;2022-07-05T02:41:04;7.37;;;6.63;;
3873;SDS011;1952;50.872;6.692;2022-07-05T02:43:32;6.40;;;5.80;;
3873;SDS011;1952;50.872;6.692;2022-07-05T02:46:02;7.30;;;6.73;;
3873;SDS011;1952;50.872;6.692;2022-07-05T02:48:31;8.27;;;7.47;;
3873;SDS011;1952;50.872;6.692;2022-07-05T02:50:59;7.10;;;6.50;;
3873;SDS011;1952;50.872;6.692;2022-07-05T02:53:27;7.73;;;6.33;;
3873;SDS011;1952;50.872;6.692;2022-07-05T02:55:56;6.83;;;6.13;;
3873;SDS011;1952;50.872;6.692;2022-07-05T02:58:25;6.60;;;6.10;;
3873;SDS011;1952;50.872;6.692;2022-07-05T03:00:58;5.33;;;4.83;;
3873;SDS011;1952;50.872;6.692;2022-07-05T03:03:28;6.83;;;6.10;;
3873;SDS011;1952;50.872;6.692;2022-07-05T03:05:56;8.00;;;7.40;;
3873;SDS011;1952;50.872;6.692;2022-07-05T03:08:24;7.53;;;6.83;;
3873;SDS011;1952;50.872;6.692;2022-07-05T03:10:52;7.73;;;6.97;;
3873;SDS011;1952;50.872;6.692;2022-07-05T03:13:21;8.03;;;7.33;;
3873;SDS011;1952;50.872;6.692;2022-07-05T03:15:49;7.47;;;6.77;;
3873;SDS011;1952;50.872;6.692;2022-07-05T03:18:17;8.50;;;6.00;;
3873;SDS011;1952;50.872;6.692;2022-07-05T03:20:47;8.67;;;7.77;;
3873;SDS011;1952;50.872;6.692;2022-07-05T03:23:15;7.30;;;6.57;;
3873;SDS011;1952;50.872;6.692;2022-07-05T03:25:44;8.57;;;7.77;;
3873;SDS011;1952;50.872;6.692;2022-07-05T03:28:17;7.97;;;7.17;;
3873;SDS011;1952;50.872;6.692;2022-07-05T03:30:59;7.80;;;7.17;;
3873;SDS011;1952;50.872;6.692;2022-07-05T03:33:32;8.63;;;7.87;;
3873;SDS011;1952;50.872;6.692;2022-07-05T03:36:08;9.07;;;8.37;;
3873;SDS011;1952;50.872;6.692;2022-07-05T03:38:36;9.53;;;7.77;;
3873;SDS011;1952;50.872;6.692;2022-07-05T03:41:05;9.20;;;8.30;;
3873;SDS011;1952;50.872;6.692;2022-07-05T03:43:48;8.30;;;7.60;;
3873;SDS011;1952;50.872;6.692;2022-07-05T03:46:16;7.87;;;6.93;;
3873;SDS011;1952;50.872;6.692;2022-07-05T03:48:45;6.00;;;5.50;;
3873;SDS011;1952;50.872;6.692;2022-07-05T03:51:14;6.53;;;5.90;;
3873;SDS011;1952;50.872;6.692;2022-07-05T03:53:47;7.70;;;7.03;;
3873;SDS011;1952;50.872;6.692;2022-07-05T03:56:20;10.03;;;7.83;;
3873;SDS011;1952;50.872;6.692;2022-07-05T03:58:57;9.90;;;7.47;;
3873;SDS011;1952;50.872;6.692;2022-07-05T04:01:26;8.53;;;7.70;;
3873;SDS011;1952;50.872;6.692;2022-07-05T04:04:09;14.50;;;9.10;;
3873;SDS011;1952;50.872;6.692;2022-07-05T04:06:58;11.03;;;9.10;;
3873;SDS011;1952;50.872;6.692;2022-07-05T04:09:45;7.77;;;6.93;;
3873;SDS011;1952;50.872;6.692;2022-07-05T04:12:28;10.70;;;6.80;;
3873;SDS011;1952;50.872;6.692;2022-07-05T04:15:04;9.63;;;7.43;;
3873;SDS011;1952;50.872;6.692;2022-07-05T04:17:47;11.00;;;7.80;;
3873;SDS011;1952;50.872;6.692;2022-07-05T04:20:21;8.80;;;7.70;;
3873;SDS011;1952;50.872;6.692;2022-07-05T04:22:55;9.83;;;8.07;;
3873;SDS011;1952;50.872;6.692;2022-07-05T04:25:44;8.80;;;7.50;;
3873;SDS011;1952;50.872;6.692;2022-07-05T04:28:13;10.17;;;6.93;;
3873;SDS011;1952;50.872;6.692;2022-07-05T04:30:42;8.57;;;7.13;;
3873;SDS011;1952;50.872;6.692;2022-07-05T04:33:28;8.13;;;7.20;;
3873;SDS011;1952;50.872;6.692;2022-07-05T04:35:58;7.83;;;6.30;;
3873;SDS011;1952;50.872;6.692;2022-07-05T04:38:29;10.07;;;6.80;;
3873;SDS011;1952;50.872;6.692;2022-07-05T04:40:58;8.27;;;7.07;;
3873;SDS011;1952;50.872;6.692;2022-07-05T04:43:27;13.27;;;7.30;;
3873;SDS011;1952;50.872;6.692;2022-07-05T04:45:56;12.10;;;7.60;;
3873;SDS011;1952;50.872;6.692;2022-07-05T04:48:30;9.37;;;7.10;;
3873;SDS011;1952;50.872;6.692;2022-07-05T04:50:59;11.90;;;8.00;;
3873;SDS011;1952;50.872;6.692;2022-07-05T04:53:32;7.23;;;6.43;;
3873;SDS011;1952;50.872;6.692;2022-07-05T04:56:07;10.33;;;7.57;;
3873;SDS011;1952;50.872;6.692;2022-07-05T04:58:36;7.67;;;6.97;;
3873;SDS011;1952;50.872;6.692;2022-07-05T05:01:08;9.60;;;6.57;;
3873;SDS011;1952;50.872;6.692;2022-07-05T05:04:04;13.93;;;7.80;;
3873;SDS011;1952;50.872;6.692;2022-07-05T05:06:41;9.90;;;6.90;;
3873;SDS011;1952;50.872;6.692;2022-07-05T05:09:13;12.80;;;7.17;;
3873;SDS011;1952;50.872;6.692;2022-07-05T05:11:55;8.50;;;6.27;;
3873;SDS011;1952;50.872;6.692;2022-07-05T05:14:47;8.40;;;6.80;;
3873;SDS011;1952;50.872;6.692;2022-07-05T05:17:22;9.70;;;6.23;;
3873;SDS011;1952;50.872;6.692;2022-07-05T05:20:11;10.30;;;6.63;;
3873;SDS011;1952;50.872;6.692;2022-07-05T05:22:42;8.97;;;6.33;;
3873;SDS011;1952;50.872;6.692;2022-07-05T05:25:28;15.10;;;7.13;;
3873;SDS011;1952;50.872;6.692;2022-07-05T05:28:03;10.33;;;7.80;;
3873;SDS011;1952;50.872;6.692;2022-07-05T05:30:41;9.60;;;7.27;;
3873;SDS011;1952;50.872;6.692;2022-07-05T05:33:23;16.07;;;7.03;;
3873;SDS011;1952;50.872;6.692;2022-07-05T05:36:03;14.03;;;6.80;;
3873;SDS011;1952;50.872;6.692;2022-07-05T05:38:36;8.03;;;6.40;;
3873;SDS011;1952;50.872;6.692;2022-07-05T05:44:15;9.37;;;8.10;;
3873;SDS011;1952;50.872;6.692;2022-07-05T05:46:51;7.80;;;6.20;;
3873;SDS011;1952;50.872;6.692;2022-07-05T05:49:29;6.70;;;5.60;;
3873;SDS011;1952;50.872;6.692;2022-07-05T05:52:13;11.17;;;5.80;;
3873;SDS011;1952;50.872;6.692;2022-07-05T06:43:50;5.90;;;3.80;;
3873;SDS011;1952;50.872;6.692;2022-07-05T06:46:46;3.70;;;3.20;;
3873;SDS011;1952;50.872;6.692;2022-07-05T06:49:45;4.07;;;3.17;;
3873;SDS011;1952;50.872;6.692;2022-07-05T06:52:15;3.30;;;3.00;;
3873;SDS011;1952;50.872;6.692;2022-07-05T06:54:57;4.30;;;3.90;;
3873;SDS011;1952;50.872;6.692;2022-07-05T06:57:41;4.30;;;3.90;;
3873;SDS011;1952;50.872;6.692;2022-07-05T07:00:40;6.87;;;3.73;;
3873;SDS011;1952;50.872;6.692;2022-07-05T07:03:38;4.77;;;4.17;;
3873;SDS011;1952;50.872;6.692;2022-07-05T07:06:43;9.27;;;3.50;;
3873;SDS011;1952;50.872;6.692;2022-07-05T07:09:39;6.13;;;4.40;;
3873;SDS011;1952;50.872;6.692;2022-07-05T07:12:25;4.10;;;3.00;;
3873;SDS011;1952;50.872;6.692;2022-07-05T07:14:55;3.70;;;3.40;;
3873;SDS011;1952;50.872;6.692;2022-07-05T07:21:45;4.80;;;4.30;;
3873;SDS011;1952;50.872;6.692;2022-07-05T07:24:27;5.30;;;4.43;;
3873;SDS011;1952;50.872;6.692;2022-07-05T07:27:30;5.03;;;4.50;;
3873;SDS011;1952;50.872;6.692;2022-07-05T07:30:24;5.17;;;4.37;;
3873;SDS011;1952;50.872;6.692;2022-07-05T07:32:56;6.37;;;4.70;;
3873;SDS011;1952;50.872;6.692;2022-07-05T07:35:41;4.87;;;4.47;;
3873;SDS011;1952;50.872;6.692;2022-07-05T07:38:27;4.97;;;4.57;;
3873;SDS011;1952;50.872;6.692;2022-07-05T07:41:08;4.63;;;4.10;;
3873;SDS011;1952;50.872;6.692;2022-07-05T07:44:04;5.63;;;5.00;;
3873;SDS011;1952;50.872;6.692;2022-07-05T07:47:00;6.53;;;4.30;;
3873;SDS011;1952;50.872;6.692;2022-07-05T07:49:56;8.27;;;4.50;;
3873;SDS011;1952;50.872;6.692;2022-07-05T07:52:55;6.10;;;4.83;;
3873;SDS011;1952;50.872;6.692;2022-07-05T07:55:54;6.33;;;5.57;;
3873;SDS011;1952;50.872;6.692;2022-07-05T07:58:36;6.23;;;5.70;;
3873;SDS011;1952;50.872;6.692;2022-07-05T08:01:39;6.33;;;5.83;;
3873;SDS011;1952;50.872;6.692;2022-07-05T08:07:16;5.20;;;4.70;;
3873;SDS011;1952;50.872;6.692;2022-07-05T08:10:00;5.40;;;4.90;;
3873;SDS011;1952;50.872;6.692;2022-07-05T08:12:46;7.50;;;5.00;;
3873;SDS011;1952;50.872;6.692;2022-07-05T08:15:15;5.10;;;4.57;;
3873;SDS011;1952;50.872;6.692;2022-07-05T08:18:07;5.60;;;5.10;;
3873;SDS011;1952;50.872;6.692;2022-07-05T08:21:00;5.03;;;4.33;;
3873;SDS011;1952;50.872;6.692;2022-07-05T08:23:49;5.10;;;4.60;;
3873;SDS011;1952;50.872;6.692;2022-07-05T08:26:34;7.57;;;5.43;;
3873;SDS011;1952;50.872;6.692;2022-07-05T08:43:01;2.93;;;2.70;;
3873;SDS011;1952;50.872;6.692;2022-07-05T08:45:46;4.97;;;4.47;;
3873;SDS011;1952;50.872;6.692;2022-07-05T08:48:46;9.63;;;4.20;;
3873;SDS011;1952;50.872;6.692;2022-07-05T08:51:45;3.77;;;3.47;;
3873;SDS011;1952;50.872;6.692;2022-07-05T08:54:29;4.07;;;3.77;;
3873;SDS011;1952;50.872;6.692;2022-07-05T09:04:17;4.03;;;3.17;;
3873;SDS011;1952;50.872;6.692;2022-07-05T09:07:16;4.33;;;3.93;;
3873;SDS011;1952;50.872;6.692;2022-07-05T09:10:12;4.30;;;4.00;;
3873;SDS011;1952;50.872;6.692;2022-07-05T09:13:10;3.93;;;3.63;;
3873;SDS011;1952;50.872;6.692;2022-07-05T09:16:06;3.10;;;2.90;;
3873;SDS011;1952;50.872;6.692;2022-07-05T09:18:39;3.47;;;3.17;;
3873;SDS011;1952;50.872;6.692;2022-07-05T09:21:15;3.77;;;3.47;;
3873;SDS011;1952;50.872;6.692;2022-07-05T09:24:01;5.43;;;3.70;;
3873;SDS011;1952;50.872;6.692;2022-07-05T09:26:52;3.13;;;2.93;;
3873;SDS011;1952;50.872;6.692;2022-07-05T09:29:57;3.27;;;2.97;;
3873;SDS011;1952;50.872;6.692;2022-07-05T09:32:29;5.07;;;3.87;;
3873;SDS011;1952;50.872;6.692;2022-07-05T09:48:19;3.83;;;2.80;;
3873;SDS011;1952;50.872;6.692;2022-07-05T09:51:03;2.80;;;2.50;;
3873;SDS011;1952;50.872;6.692;2022-07-05T09:54:05;2.70;;;2.50;;
3873;SDS011;1952;50.872;6.692;2022-07-05T09:57:03;3.73;;;3.07;;
3873;SDS011;1952;50.872;6.692;2022-07-05T10:00:03;3.07;;;2.63;;
3873;SDS011;1952;50.872;6.692;2022-07-05T10:02:35;3.80;;;3.00;;
3873;SDS011;1952;50.872;6.692;2022-07-05T10:05:13;2.83;;;2.60;;
3873;SDS011;1952;50.872;6.692;2022-07-05T10:07:43;3.93;;;2.67;;
3873;SDS011;1952;50.872;6.692;2022-07-05T10:10:12;3.00;;;2.30;;
3873;SDS011;1952;50.872;6.692;2022-07-05T10:12:41;2.87;;;2.30;;
3873;SDS011;1952;50.872;6.692;2022-07-05T10:15:16;2.83;;;2.40;;
3873;SDS011;1952;50.872;6.692;2022-07-05T10:17:46;4.70;;;3.27;;
3873;SDS011;1952;50.872;6.692;2022-07-05T10:20:28;2.73;;;2.53;;
3873;SDS011;1952;50.872;6.692;2022-07-05T10:23:05;5.07;;;2.80;;
3873;SDS011;1952;50.872;6.692;2022-07-05T10:25:35;4.37;;;2.40;;
3873;SDS011;1952;50.872;6.692;2022-07-05T10:28:04;2.97;;;2.77;;
3873;SDS011;1952;50.872;6.692;2022-07-05T10:30:33;3.30;;;2.90;;
3873;SDS011;1952;50.872;6.692;2022-07-05T10:33:07;3.43;;;2.63;;
3873;SDS011;1952;50.872;6.692;2022-07-05T10:35:37;4.20;;;3.00;;
3873;SDS011;1952;50.872;6.692;2022-07-05T10:38:06;3.97;;;2.80;;
3873;SDS011;1952;50.872;6.692;2022-07-05T10:40:42;3.03;;;2.73;;
3873;SDS011;1952;50.872;6.692;2022-07-05T10:43:18;2.27;;;2.07;;
3873;SDS011;1952;50.872;6.692;2022-07-05T10:45:54;2.83;;;2.57;;
3873;SDS011;1952;50.872;6.692;2022-07-05T10:48:23;3.70;;;3.40;;
3873;SDS011;1952;50.872;6.692;2022-07-05T10:50:58;3.27;;;2.70;;
3873;SDS011;1952;50.872;6.692;2022-07-05T10:56:30;4.03;;;2.27;;
3873;SDS011;1952;50.872;6.692;2022-07-05T10:59:05;2.47;;;2.27;;
3873;SDS011;1952;50.872;6.692;2022-07-05T11:01:40;4.20;;;2.47;;
3873;SDS011;1952;50.872;6.692;2022-07-05T11:04:18;2.97;;;2.47;;
3873;SDS011;1952;50.872;6.692;2022-07-05T11:07:02;2.20;;;2.10;;
3873;SDS011;1952;50.872;6.692;2022-07-05T11:09:31;6.00;;;2.27;;
3873;SDS011;1952;50.872;6.692;2022-07-05T11:12:06;4.13;;;2.27;;
3873;SDS011;1952;50.872;6.692;2022-07-05T11:15:03;2.57;;;2.37;;
3873;SDS011;1952;50.872;6.692;2022-07-05T11:17:35;2.70;;;2.50;;
3873;SDS011;1952;50.872;6.692;2022-07-05T11:20:27;2.47;;;2.27;;
3873;SDS011;1952;50.872;6.692;2022-07-05T11:23:10;2.30;;;2.10;;
3873;SDS011;1952;50.872;6.692;2022-07-05T11:25:40;2.90;;;2.60;;
3873;SDS011;1952;50.872;6.692;2022-07-05T11:28:12;2.57;;;2.23;;
3873;SDS011;1952;50.872;6.692;2022-07-05T11:30:46;4.43;;;2.40;;
3873;SDS011;1952;50.872;6.692;2022-07-05T11:36:22;2.63;;;2.40;;
3873;SDS011;1952;50.872;6.692;2022-07-05T11:39:07;3.40;;;2.23;;
3873;SDS011;1952;50.872;6.692;2022-07-05T11:41:38;3.10;;;1.97;;
3873;SDS011;1952;50.872;6.692;2022-07-05T11:44:06;3.30;;;2.40;;
3873;SDS011;1952;50.872;6.692;2022-07-05T11:46:35;2.80;;;2.60;;
3873;SDS011;1952;50.872;6.692;2022-07-05T11:49:18;2.57;;;2.27;;
3873;SDS011;1952;50.872;6.692;2022-07-05T11:51:54;2.67;;;2.47;;
3873;SDS011;1952;50.872;6.692;2022-07-05T11:54:25;4.63;;;2.63;;
3873;SDS011;1952;50.872;6.692;2022-07-05T12:33:32;2.83;;;2.60;;
3873;SDS011;1952;50.872;6.692;2022-07-05T12:36:00;4.40;;;2.80;;
3873;SDS011;1952;50.872;6.692;2022-07-05T12:38:29;2.60;;;2.40;;
3873;SDS011;1952;50.872;6.692;2022-07-05T12:40:58;2.77;;;2.57;;
3873;SDS011;1952;50.872;6.692;2022-07-05T12:43:26;2.67;;;2.47;;
3873;SDS011;1952;50.872;6.692;2022-07-05T12:46:01;3.10;;;2.80;;
3873;SDS011;1952;50.872;6.692;2022-07-05T12:48:32;3.87;;;2.30;;
3873;SDS011;1952;50.872;6.692;2022-07-05T12:51:07;3.07;;;2.30;;
3873;SDS011;1952;50.872;6.692;2022-07-05T12:53:44;3.30;;;2.10;;
3873;SDS011;1952;50.872;6.692;2022-07-05T12:56:32;3.10;;;2.80;;
3873;SDS011;1952;50.872;6.692;2022-07-05T12:59:23;3.00;;;2.53;;
3873;SDS011;1952;50.872;6.692;2022-07-05T13:01:51;3.33;;;2.80;;
3873;SDS011;1952;50.872;6.692;2022-07-05T13:04:21;3.13;;;2.80;;
3873;SDS011;1952;50.872;6.692;2022-07-05T13:06:49;3.70;;;3.10;;
3873;SDS011;1952;50.872;6.692;2022-07-05T13:09:29;3.20;;;2.37;;
3873;SDS011;1952;50.872;6.692;2022-07-05T13:12:05;3.00;;;2.80;;
3873;SDS011;1952;50.872;6.692;2022-07-05T13:14:43;3.37;;;2.80;;
3873;SDS011;1952;50.872;6.692;2022-07-05T13:17:12;3.80;;;2.53;;
3873;SDS011;1952;50.872;6.692;2022-07-05T13:19:43;4.00;;;3.00;;
3873;SDS011;1952;50.872;6.692;2022-07-05T13:22:13;2.67;;;2.47;;
3873;SDS011;1952;50.872;6.692;2022-07-05T13:24:42;4.33;;;2.53;;
3873;SDS011;1952;50.872;6.692;2022-07-05T13:27:16;3.37;;;2.57;;
3873;SDS011;1952;50.872;6.692;2022-07-05T13:29:44;4.23;;;2.20;;
3873;SDS011;1952;50.872;6.692;2022-07-05T13:32:14;3.23;;;2.20;;
3873;SDS011;1952;50.872;6.692;2022-07-05T13:34:44;3.00;;;2.70;;
3873;SDS011;1952;50.872;6.692;2022-07-05T13:37:19;5.73;;;2.80;;
3873;SDS011;1952;50.872;6.692;2022-07-05T13:39:47;2.40;;;2.00;;
3873;SDS011;1952;50.872;6.692;2022-07-05T13:42:16;2.73;;;2.50;;
3873;SDS011;1952;50.872;6.692;2022-07-05T13:44:49;4.90;;;2.67;;
3873;SDS011;1952;50.872;6.692;2022-07-05T13:47:18;5.17;;;3.20;;
3873;SDS011;1952;50.872;6.692;2022-07-05T13:49:48;2.50;;;2.30;;
3873;SDS011;1952;50.872;6.692;2022-07-05T13:52:36;8.20;;;2.53;;
3873;SDS011;1952;50.872;6.692;2022-07-05T13:55:05;5.93;;;2.90;;
3873;SDS011;1952;50.872;6.692;2022-07-05T13:57:33;3.10;;;2.60;;
3873;SDS011;1952;50.872;6.692;2022-07-05T14:00:07;3.63;;;2.50;;
3873;SDS011;1952;50.872;6.692;2022-07-05T14:02:35;4.57;;;2.77;;
3873;SDS011;1952;50.872;6.692;2022-07-05T14:05:05;3.57;;;3.20;;
3873;SDS011;1952;50.872;6.692;2022-07-05T14:07:34;3.10;;;2.90;;
3873;SDS011;1952;50.872;6.692;2022-07-05T14:10:03;3.17;;;2.80;;
3873;SDS011;1952;50.872;6.692;2022-07-05T14:12:32;3.50;;;2.73;;
3873;SDS011;1952;50.872;6.692;2022-07-05T14:15:00;2.73;;;2.53;;
3873;SDS011;1952;50.872;6.692;2022-07-05T14:17:33;4.20;;;2.80;;
3873;SDS011;1952;50.872;6.692;2022-07-05T14:20:02;3.23;;;2.70;;
3873;SDS011;1952;50.872;6.692;2022-07-05T14:22:37;3.03;;;2.73;;
3873;SDS011;1952;50.872;6.692;2022-07-05T14:25:05;3.33;;;2.93;;
3873;SDS011;1952;50.872;6.692;2022-07-05T14:27:33;3.93;;;2.53;;
3873;SDS011;1952;50.872;6.692;2022-07-05T14:30:02;4.17;;;3.20;;
3873;SDS011;1952;50.872;6.692;2022-07-05T14:32:30;3.30;;;3.00;;
3873;SDS011;1952;50.872;6.692;2022-07-05T14:34:58;3.33;;;2.80;;
3873;SDS011;1952;50.872;6.692;2022-07-05T14:37:31;3.43;;;2.50;;
3873;SDS011;1952;50.872;6.692;2022-07-05T14:40:01;4.00;;;2.40;;
3873;SDS011;1952;50.872;6.692;2022-07-05T14:42:31;4.03;;;2.47;;
3873;SDS011;1952;50.872;6.692;2022-07-05T14:44:59;2.83;;;2.63;;
3873;SDS011;1952;50.872;6.692;2022-07-05T14:47:27;2.67;;;2.47;;
3873;SDS011;1952;50.872;6.692;2022-07-05T14:50:00;3.40;;;2.53;;
3873;SDS011;1952;50.872;6.692;2022-07-05T14:52:30;4.30;;;2.77;;
3873;SDS011;1952;50.872;6.692;2022-07-05T14:54:58;3.60;;;2.30;;
3873;SDS011;1952;50.872;6.692;2022-07-05T14:57:28;5.67;;;2.73;;
3873;SDS011;1952;50.872;6.692;2022-07-05T15:00:01;2.50;;;2.30;;
3873;SDS011;1952;50.872;6.692;2022-07-05T15:02:29;3.10;;;2.80;;
3873;SDS011;1952;50.872;6.692;2022-07-05T15:04:58;4.87;;;2.87;;
3873;SDS011;1952;50.872;6.692;2022-07-05T15:07:31;2.83;;;2.63;;
3873;SDS011;1952;50.872;6.692;2022-07-05T15:10:00;2.60;;;2.40;;
3873;SDS011;1952;50.872;6.692;2022-07-05T15:12:34;4.70;;;2.47;;
3873;SDS011;1952;50.872;6.692;2022-07-05T15:15:04;2.60;;;2.40;;
3873;SDS011;1952;50.872;6.692;2022-07-05T15:17:33;2.53;;;2.33;;
3873;SDS011;1952;50.872;6.692;2022-07-05T15:20:01;5.67;;;2.90;;
3873;SDS011;1952;50.872;6.692;2022-07-05T15:22:30;2.40;;;2.20;;
3873;SDS011;1952;50.872;6.692;2022-07-05T15:25:04;3.23;;;2.60;;
3873;SDS011;1952;50.872;6.692;2022-07-05T15:27:39;6.20;;;2.60;;
3873;SDS011;1952;50.872;6.692;2022-07-05T15:30:08;3.77;;;2.70;;
3873;SDS011;1952;50.872;6.692;2022-07-05T15:32:37;6.10;;;2.93;;
3873;SDS011;1952;50.872;6.692;2022-07-05T15:35:10;3.53;;;2.40;;
3873;SDS011;1952;50.872;6.692;2022-07-05T15:37:38;3.03;;;2.50;;
3873;SDS011;1952;50.872;6.692;2022-07-05T15:40:07;2.93;;;2.57;;
3873;SDS011;1952;50.872;6.692;2022-07-05T15:42:40;4.90;;;2.93;;
3873;SDS011;1952;50.872;6.692;2022-07-05T15:45:08;3.33;;;2.20;;
3873;SDS011;1952;50.872;6.692;2022-07-05T15:47:42;6.43;;;2.83;;
3873;SDS011;1952;50.872;6.692;2022-07-05T15:50:14;3.83;;;2.67;;
3873;SDS011;1952;50.872;6.692;2022-07-05T15:52:43;3.73;;;3.17;;
3873;SDS011;1952;50.872;6.692;2022-07-05T15:55:11;3.70;;;3.30;;
3873;SDS011;1952;50.872;6.692;2022-07-05T15:57:46;3.17;;;2.87;;
3873;SDS011;1952;50.872;6.692;2022-07-05T16:00:14;4.40;;;2.50;;
3873;SDS011;1952;50.872;6.692;2022-07-05T16:02:42;3.27;;;2.97;;
3873;SDS011;1952;50.872;6.692;2022-07-05T16:05:16;2.73;;;2.53;;
3873;SDS011;1952;50.872;6.692;2022-07-05T16:07:49;3.87;;;3.20;;
3873;SDS011;1952;50.872;6.692;2022-07-05T16:10:17;3.63;;;3.00;;
3873;SDS011;1952;50.872;6.692;2022-07-05T16:13:01;4.93;;;3.17;;
3873;SDS011;1952;50.872;6.692;2022-07-05T16:15:35;3.10;;;2.77;;
3873;SDS011;1952;50.872;6.692;2022-07-05T16:18:21;3.67;;;3.43;;
3873;SDS011;1952;50.872;6.692;2022-07-05T16:20:49;4.00;;;3.70;;
3873;SDS011;1952;50.872;6.692;2022-07-05T16:23:22;3.50;;;3.20;;
3873;SDS011;1952;50.872;6.692;2022-07-05T16:25:56;4.80;;;4.00;;
3873;SDS011;1952;50.872;6.692;2022-07-05T16:28:32;4.77;;;4.27;;
3873;SDS011;1952;50.872;6.692;2022-07-05T16:31:06;8.30;;;4.03;;
3873;SDS011;1952;50.872;6.692;2022-07-05T16:33:36;6.10;;;4.60;;
3873;SDS011;1952;50.872;6.692;2022-07-05T16:36:11;6.17;;;4.40;;
3873;SDS011;1952;50.872;6.692;2022-07-05T16:38:45;5.00;;;4.60;;
3873;SDS011;1952;50.872;6.692;2022-07-05T16:41:13;5.33;;;4.83;;
3873;SDS011;1952;50.872;6.692;2022-07-05T16:43:46;5.50;;;4.53;;
3873;SDS011;1952;50.872;6.692;2022-07-05T16:46:15;4.30;;;3.90;;
3873;SDS011;1952;50.872;6.692;2022-07-05T16:48:45;10.43;;;4.67;;
3873;SDS011;1952;50.872;6.692;2022-07-05T16:51:15;5.73;;;4.10;;
3873;SDS011;1952;50.872;6.692;2022-07-05T16:53:45;12.37;;;5.70;;
3873;SDS011;1952;50.872;6.692;2022-07-05T16:56:16;6.27;;;5.13;;
3873;SDS011;1952;50.872;6.692;2022-07-05T16:58:51;5.33;;;4.83;;
3873;SDS011;1952;50.872;6.692;2022-07-05T17:01:27;4.87;;;4.33;;
3873;SDS011;1952;50.872;6.692;2022-07-05T17:03:55;5.37;;;4.87;;
3873;SDS011;1952;50.872;6.692;2022-07-05T17:06:28;4.77;;;4.10;;
3873;SDS011;1952;50.872;6.692;2022-07-05T17:09:01;6.57;;;5.90;;
3873;SDS011;1952;50.872;6.692;2022-07-05T17:11:35;5.40;;;4.90;;
3873;SDS011;1952;50.872;6.692;2022-07-05T17:14:06;4.57;;;3.80;;
3873;SDS011;1952;50.872;6.692;2022-07-05T17:16:39;4.60;;;4.20;;
3873;SDS011;1952;50.872;6.692;2022-07-05T17:19:08;4.10;;;3.80;;
3873;SDS011;1952;50.872;6.692;2022-07-05T17:21:36;3.70;;;3.40;;
3873;SDS011;1952;50.872;6.692;2022-07-05T17:24:09;4.33;;;3.93;;
3873;SDS011;1952;50.872;6.692;2022-07-05T17:26:38;6.13;;;3.63;;
3873;SDS011;1952;50.872;6.692;2022-07-05T17:29:08;4.20;;;3.80;;
3873;SDS011;1952;50.872;6.692;2022-07-05T17:31:36;4.33;;;3.93;;
3873;SDS011;1952;50.872;6.692;2022-07-05T17:34:04;4.40;;;2.90;;
3873;SDS011;1952;50.872;6.692;2022-07-05T17:36:38;4.43;;;4.07;;
3873;SDS011;1952;50.872;6.692;2022-07-05T17:39:06;4.13;;;3.70;;
3873;SDS011;1952;50.872;6.692;2022-07-05T17:41:39;4.50;;;3.50;;
3873;SDS011;1952;50.872;6.692;2022-07-05T17:44:16;6.57;;;3.50;;
3873;SDS011;1952;50.872;6.692;2022-07-05T17:46:44;4.00;;;3.70;;
3873;SDS011;1952;50.872;6.692;2022-07-05T17:49:16;3.57;;;3.27;;
3873;SDS011;1952;50.872;6.692;2022-07-05T17:51:49;4.40;;;4.10;;
3873;SDS011;1952;50.872;6.692;2022-07-05T17:54:37;3.47;;;3.10;;
3873;SDS011;1952;50.872;6.692;2022-07-05T18:35:23;3.67;;;3.37;;
3873;SDS011;1952;50.872;6.692;2022-07-05T18:37:51;3.37;;;2.83;;
3873;SDS011;1952;50.872;6.692;2022-07-05T18:40:20;4.70;;;3.60;;
3873;SDS011;1952;50.872;6.692;2022-07-05T18:42:47;3.70;;;2.97;;
3873;SDS011;1952;50.872;6.692;2022-07-05T18:45:21;3.97;;;2.90;;
3873;SDS011;1952;50.872;6.692;2022-07-05T18:47:54;3.27;;;2.30;;
3873;SDS011;1952;50.872;6.692;2022-07-05T18:50:24;5.30;;;2.80;;
3873;SDS011;1952;50.872;6.692;2022-07-05T18:52:52;3.40;;;3.10;;
3873;SDS011;1952;50.872;6.692;2022-07-05T18:55:25;5.80;;;3.30;;
3873;SDS011;1952;50.872;6.692;2022-07-05T18:57:53;3.20;;;2.90;;
3873;SDS011;1952;50.872;6.692;2022-07-05T19:00:22;5.53;;;3.47;;
3873;SDS011;1952;50.872;6.692;2022-07-05T19:02:50;2.73;;;2.53;;
3873;SDS011;1952;50.872;6.692;2022-07-05T19:05:25;3.33;;;3.03;;
3873;SDS011;1952;50.872;6.692;2022-07-05T19:07:53;3.07;;;2.60;;
3873;SDS011;1952;50.872;6.692;2022-07-05T19:10:39;5.93;;;3.57;;
3873;SDS011;1952;50.872;6.692;2022-07-05T19:13:26;5.10;;;2.33;;
3873;SDS011;1952;50.872;6.692;2022-07-05T19:16:15;5.00;;;2.40;;
3873;SDS011;1952;50.872;6.692;2022-07-05T19:18:43;2.70;;;2.40;;
3873;SDS011;1952;50.872;6.692;2022-07-05T19:21:18;4.90;;;3.23;;
3873;SDS011;1952;50.872;6.692;2022-07-05T19:23:51;2.40;;;2.20;;
3873;SDS011;1952;50.872;6.692;2022-07-05T19:26:25;3.73;;;2.70;;
3873;SDS011;1952;50.872;6.692;2022-07-05T19:28:53;4.47;;;3.07;;